Bezoek onze andere website:

De Wijde Wereld



METAR rapporten vliegvelden

   
EHBK - Maastricht
Gewijzigd: 20-06-2019 19:25
Licht bewolkt  
Licht bewolkt  
   Wind: NW 0 km/h
Wind: NW 0 km/h
Temperatuur: 20°C
Dauwpunt: 13°C
Vochtigheid: 64%
Barometer: 1014 hPa
Bewolking: Few Clouds
Zicht: meer dan 10 km
Bewolking: Licht bewolkt 1219.2 m
EHBK 201725Z AUTO 32009KT 260V360 9999 FEW040 20/13 Q1014 NOSIG
LSZA - Lugano
Gewijzigd: 20-06-2019 19:20
Licht bewolkt  
Licht bewolkt  
   Wind: varieert 0 km/h
Wind: varieert 0 km/h
Temperatuur: 26°C
Dauwpunt: 12°C
Vochtigheid: 42%
Barometer: 1013 hPa
Bewolking: Few Clouds
Zicht: meer dan 10 km
Bewolking: Licht bewolkt 2438.4 m
LSZA 201720Z VRB03KT 9999 FEW080 26/12 Q1013 NOSIG
LIRA - Rome
Gewijzigd: 20-06-2019 19:20
Helder  
Helder  
   Wind: ZW 0 km/h
Wind: ZW 0 km/h
Temperatuur: 27°C
Gevoelstemperatuur: 27°C
Dauwpunt: 14°C
Vochtigheid: 45%
Barometer: 1014 hPa
Zicht: meer dan 10 km
Bewolking: Helder m
LIRA 201720Z 22005KT 170V260 CAVOK 27/14 Q1014
LPFR - Faro
Gewijzigd: 20-06-2019 19:30
Helder  
Helder  
   Wind: WZW 0 km/h
Wind: WZW 0 km/h
Temperatuur: 21°C
Dauwpunt: 15°C
Vochtigheid: 69%
Barometer: 1015 hPa
Zicht: meer dan 10 km
Bewolking: Helder m
LPFR 201730Z 25017KT CAVOK 21/15 Q1015
EBCV - Mons/Bergen
Gewijzigd: 20-06-2019 19:25
Licht bewolkt  
Licht bewolkt  
   Wind: Westen 0 km/h
Wind: Westen 0 km/h
Temperatuur: 18°C
Dauwpunt: 8°C
Vochtigheid: 52%
Barometer: 1015 hPa
Bewolking: Few Clouds
Zicht: meer dan 10 km
Bewolking: Licht bewolkt 1463 m
EBCV 201725Z AUTO 27011KT 9999 FEW048/// 18/08 Q1015 BLU
EBOS - Oostende
Gewijzigd: 20-06-2019 19:20
Licht bewolkt  
Licht bewolkt  
   Wind: Westen 0 km/h
Wind: Westen 0 km/h
Temperatuur: 17°C
Dauwpunt: 11°C
Vochtigheid: 68%
Barometer: 1015 hPa
Bewolking: Few Clouds
Zicht: meer dan 10 km
Bewolking: Licht bewolkt 853.4 m
EBOS 201720Z 27016KT 9999 FEW028 17/11 Q1015 NOSIG

Script ontwikkeld door  Saratoga-weather.org Aangepast voor de template door  Weerstation Leuven

Apparatuur in gebruik:

Weerprogramma
Meteohub

Meteohub